Time;durP1;ratioP1;P1;durP2;ratioP2;P2;SDS_P1;SDS_P2;PMS_P1;PMS_P2;Temp;Humidity;BMP_temperature;BMP_pressure;BME280_temperature;BME280_humidity;BME280_pressure;Samples;Min_cycle;Max_cycle;Signal;HPM_P1;HPM_P2
2023/05/13 00:01:53;;;;;;;12.05;3.92;;;21.30;39.70;;;;;;4992690;28;20400;-74
2023/05/13 00:04:19;;;;;;;9.88;3.95;;;21.30;39.30;;;;;;4992635;28;20062;-74
2023/05/13 00:06:45;;;;;;;7.95;3.58;;;21.20;39.60;;;;;;4992440;28;20125;-74
2023/05/13 00:09:11;;;;;;;12.05;4.10;;;21.30;39.70;;;;;;4992367;28;20023;-74
2023/05/13 00:11:36;;;;;;;11.13;3.53;;;21.20;39.60;;;;;;4992579;28;20033;-74
2023/05/13 00:14:02;;;;;;;10.40;3.65;;;21.20;39.60;;;;;;4992540;28;20050;-74
2023/05/13 00:16:28;;;;;;;10.40;3.70;;;21.20;39.50;;;;;;4992463;28;20507;-74
2023/05/13 00:18:55;;;;;;;10.57;3.92;;;21.20;39.70;;;;;;4992172;28;20022;-74
2023/05/13 00:21:21;;;;;;;7.85;3.75;;;21.20;39.60;;;;;;4992318;28;20053;-73
2023/05/13 00:23:47;;;;;;;11.40;3.42;;;21.10;39.50;;;;;;4992289;28;20102;-74
2023/05/13 00:26:13;;;;;;;10.02;3.45;;;21.10;39.60;;;;;;4992306;28;20026;-74
2023/05/13 00:28:39;;;;;;;7.03;3.65;;;21.10;39.60;;;;;;4974648;28;20405;-74
2023/05/13 00:31:05;;;;;;;6.93;3.55;;;21.00;39.40;;;;;;4992203;28;20026;-74
2023/05/13 00:33:31;;;;;;;11.40;3.53;;;21.00;39.60;;;;;;4958882;28;20037;-74
2023/05/13 00:35:57;;;;;;;8.18;3.55;;;21.00;39.60;;;;;;4974987;28;20034;-74
2023/05/13 00:38:22;;;;;;;8.27;3.65;;;21.00;39.50;;;;;;4974545;28;20107;-74
2023/05/13 00:40:49;;;;;;;10.90;4.05;;;21.00;39.60;;;;;;4974766;28;20384;-74
2023/05/13 00:43:15;;;;;;;8.68;3.65;;;21.00;40.10;;;;;;4992128;28;20105;-74
2023/05/13 00:45:42;;;;;;;10.15;3.70;;;20.90;39.50;;;;;;4990896;28;20097;-74
2023/05/13 00:48:08;;;;;;;7.65;3.35;;;20.90;39.60;;;;;;4974344;28;20038;-73
2023/05/13 00:50:34;;;;;;;11.15;3.75;;;20.90;39.60;;;;;;4974507;28;20042;-73
2023/05/13 00:53:02;;;;;;;11.93;3.65;;;20.90;39.60;;;;;;4992070;28;20026;-73
2023/05/13 00:55:27;;;;;;;6.85;3.58;;;21.00;39.60;;;;;;4990813;28;20041;-73
2023/05/13 00:57:53;;;;;;;8.93;3.65;;;20.90;39.60;;;;;;4991717;28;20030;-73
2023/05/13 01:00:19;;;;;;;11.27;4.00;;;20.90;39.80;;;;;;4974599;28;20431;-74
2023/05/13 01:03:25;;;;;;;11.50;3.92;;;20.90;39.70;;;;;;4992160;28;20062;-73
2023/05/13 01:06:11;;;;;;;8.50;3.80;;;20.90;39.70;;;;;;4991897;28;20030;-73
2023/05/13 01:09:00;;;;;;;10.85;3.75;;;20.90;39.80;;;;;;4990204;28;20121;-73
2023/05/13 01:11:35;;;;;;;6.72;3.50;;;20.90;39.80;;;;;;4958454;28;20022;-73
2023/05/13 01:14:08;;;;;;;11.18;3.83;;;20.90;39.90;;;;;;4974709;28;20030;-74
2023/05/13 01:16:43;;;;;;;7.18;3.92;;;20.80;39.70;;;;;;4992030;28;20049;-73
2023/05/13 01:19:40;;;;;;;10.95;3.92;;;20.80;39.80;;;;;;4974280;28;20101;-74
2023/05/13 01:22:06;;;;;;;15.57;3.78;;;20.80;39.90;;;;;;4970028;28;20073;-73
2023/05/13 01:24:32;;;;;;;8.75;3.75;;;20.80;39.90;;;;;;4990561;28;20030;-73
2023/05/13 01:26:59;;;;;;;9.00;3.90;;;20.80;39.80;;;;;;4974045;28;20022;-73
2023/05/13 01:29:25;;;;;;;8.43;3.90;;;20.80;39.80;;;;;;4974341;28;20037;-74
2023/05/13 01:31:52;;;;;;;9.02;4.00;;;20.80;39.80;;;;;;4974301;28;20030;-74
2023/05/13 01:34:21;;;;;;;12.95;4.25;;;20.80;40.00;;;;;;4973866;28;20096;-73
2023/05/13 01:36:47;;;;;;;11.35;4.20;;;20.80;39.80;;;;;;4989788;28;20109;-73
2023/05/13 01:39:18;;;;;;;9.30;4.00;;;20.80;39.90;;;;;;4958035;28;20030;-73
2023/05/13 01:41:44;;;;;;;13.88;4.18;;;20.80;39.80;;;;;;4957819;28;20030;-73
2023/05/13 01:44:10;;;;;;;9.80;3.63;;;20.70;39.70;;;;;;4973988;28;20035;-73
2023/05/13 01:46:39;;;;;;;15.27;4.05;;;20.70;39.70;;;;;;4974351;28;20555;-73
2023/05/13 01:49:06;;;;;;;15.23;4.17;;;20.60;39.70;;;;;;4957956;28;20447;-73
2023/05/13 01:51:35;;;;;;;6.43;3.67;;;20.70;39.80;;;;;;4954663;28;20537;-73
2023/05/13 01:54:01;;;;;;;13.95;3.85;;;20.70;39.80;;;;;;4972121;28;20066;-73
2023/05/13 01:56:29;;;;;;;12.15;4.70;;;20.60;39.70;;;;;;4970825;28;20034;-73
2023/05/13 01:58:56;;;;;;;7.63;3.50;;;20.70;39.80;;;;;;4970474;28;20027;-73
2023/05/13 02:01:21;;;;;;;9.57;3.72;;;20.70;39.70;;;;;;4970822;28;20033;-73
2023/05/13 02:03:48;;;;;;;12.00;3.95;;;20.70;39.70;;;;;;4974237;28;20070;-73
2023/05/13 02:06:14;;;;;;;9.20;3.83;;;20.70;39.70;;;;;;4974307;28;20030;-73
2023/05/13 02:08:39;;;;;;;17.70;4.30;;;20.60;39.50;;;;;;4975078;28;20042;-73
2023/05/13 02:11:05;;;;;;;14.52;4.15;;;20.60;39.60;;;;;;4974228;28;20109;-73
2023/05/13 02:13:31;;;;;;;9.30;4.20;;;20.60;39.60;;;;;;4958030;28;20030;-73
2023/05/13 02:15:57;;;;;;;9.05;4.32;;;20.60;39.60;;;;;;4974176;28;20035;-73
2023/05/13 02:18:23;;;;;;;10.85;3.78;;;20.60;39.50;;;;;;4957838;28;20085;-73
2023/05/13 02:20:50;;;;;;;8.07;3.90;;;20.60;39.60;;;;;;4958031;28;20493;-73
2023/05/13 02:23:16;;;;;;;9.25;3.75;;;20.60;39.60;;;;;;4974047;28;20484;-73
2023/05/13 02:25:42;;;;;;;14.90;3.75;;;20.60;39.60;;;;;;4958938;28;20038;-73
2023/05/13 02:28:09;;;;;;;12.35;3.97;;;20.60;39.60;;;;;;4973939;28;20520;-73
2023/05/13 02:30:35;;;;;;;11.80;4.55;;;20.60;39.60;;;;;;4973954;28;20026;-73
2023/05/13 02:33:01;;;;;;;12.60;3.85;;;20.50;39.70;;;;;;4973902;28;20033;-74
2023/05/13 02:35:28;;;;;;;9.88;3.95;;;20.50;39.60;;;;;;4973789;28;20035;-73
2023/05/13 02:37:56;;;;;;;12.30;3.95;;;20.50;39.60;;;;;;4974598;28;20027;-74
2023/05/13 02:40:22;;;;;;;7.10;3.90;;;20.50;39.60;;;;;;4973741;28;20121;-73
2023/05/13 02:42:48;;;;;;;13.68;4.38;;;20.50;40.00;;;;;;4974792;28;20261;-73
2023/05/13 02:45:17;;;;;;;9.30;3.60;;;20.50;39.60;;;;;;4973584;28;20034;-73
2023/05/13 02:47:49;;;;;;;10.25;4.00;;;20.50;39.70;;;;;;4973307;28;20031;-73
2023/05/13 02:50:16;;;;;;;8.43;4.38;;;20.50;39.70;;;;;;4973698;28;20027;-73
2023/05/13 02:52:43;;;;;;;14.00;4.50;;;20.50;39.70;;;;;;4973460;28;20030;-73
2023/05/13 02:55:09;;;;;;;8.85;3.97;;;20.50;39.60;;;;;;4957394;28;20038;-73
2023/05/13 02:57:39;;;;;;;10.63;4.20;;;20.50;39.60;;;;;;4972788;28;20034;-73
2023/05/13 03:00:06;;;;;;;11.48;4.65;;;20.40;39.60;;;;;;4957390;28;20066;-74
2023/05/13 03:02:33;;;;;;;12.00;4.00;;;20.40;39.60;;;;;;4957257;28;20035;-74
2023/05/13 03:04:59;;;;;;;10.07;4.47;;;20.40;39.70;;;;;;4974314;28;20034;-74
2023/05/13 03:07:25;;;;;;;9.68;3.88;;;20.40;39.60;;;;;;4972692;28;20042;-78
2023/05/13 03:09:51;;;;;;;15.65;5.13;;;20.40;39.60;;;;;;4985475;28;20038;-75
2023/05/13 03:12:16;;;;;;;10.73;4.13;;;20.50;39.90;;;;;;4960040;28;20057;-75
2023/05/13 03:14:43;;;;;;;9.43;4.22;;;20.70;40.10;;;;;;4974753;28;20535;-75
2023/05/13 03:17:10;;;;;;;7.70;4.05;;;20.70;40.10;;;;;;4959406;28;20035;-75
2023/05/13 03:19:37;;;;;;;10.73;3.60;;;20.90;40.20;;;;;;4959680;28;20032;-75
2023/05/13 03:22:04;;;;;;;13.18;3.88;;;20.90;40.40;;;;;;4991862;28;20492;-75
2023/05/13 03:24:31;;;;;;;7.28;3.38;;;21.00;40.50;;;;;;4975455;28;20034;-76
2023/05/13 03:26:58;;;;;;;9.40;3.75;;;21.00;40.70;;;;;;4975178;28;20477;-76
2023/05/13 03:29:24;;;;;;;9.15;3.63;;;21.10;41.10;;;;;;4975607;28;20037;-75
2023/05/13 03:31:52;;;;;;;8.55;3.58;;;21.10;41.40;;;;;;4975716;28;20031;-76
2023/05/13 03:34:18;;;;;;;7.40;3.20;;;21.10;41.70;;;;;;4975494;28;20388;-75
2023/05/13 03:36:44;;;;;;;8.43;3.85;;;21.10;41.90;;;;;;4991374;28;20026;-75
2023/05/13 03:39:10;;;;;;;6.97;3.35;;;21.20;42.20;;;;;;4992507;28;20341;-75
2023/05/13 03:41:37;;;;;;;9.18;3.53;;;21.10;42.40;;;;;;4975457;28;20096;-75
2023/05/13 03:44:03;;;;;;;8.73;3.60;;;21.20;42.70;;;;;;4975064;28;20100;-75
2023/05/13 03:46:29;;;;;;;7.00;3.38;;;21.20;42.90;;;;;;4992460;28;20109;-75
2023/05/13 03:48:55;;;;;;;5.80;3.60;;;21.20;42.90;;;;;;4975147;28;20030;-75
2023/05/13 03:51:22;;;;;;;5.63;3.20;;;21.20;43.00;;;;;;4991876;28;20552;-76
2023/05/13 03:53:49;;;;;;;7.10;3.40;;;21.20;43.20;;;;;;4975503;28;20035;-76
2023/05/13 03:56:15;;;;;;;5.75;3.30;;;21.20;43.30;;;;;;4992861;28;20128;-76
2023/05/13 03:58:43;;;;;;;7.38;3.50;;;21.20;43.50;;;;;;4974987;28;20069;-76
2023/05/13 04:01:09;;;;;;;6.13;3.50;;;21.30;43.70;;;;;;4975428;28;20030;-76
2023/05/13 04:03:35;;;;;;;5.50;3.35;;;21.30;43.60;;;;;;4975427;28;20057;-76
2023/05/13 04:06:01;;;;;;;5.88;3.35;;;21.30;43.80;;;;;;4992651;28;20539;-76
2023/05/13 04:08:27;;;;;;;7.35;3.92;;;21.30;43.90;;;;;;4992106;28;20026;-76
2023/05/13 04:10:54;;;;;;;7.22;3.60;;;21.30;44.00;;;;;;4975271;28;20042;-76
2023/05/13 04:13:20;;;;;;;8.70;3.47;;;21.30;44.00;;;;;;4975216;28;20034;-76
2023/05/13 04:15:46;;;;;;;6.70;3.58;;;21.30;44.00;;;;;;4975040;28;20157;-76
2023/05/13 04:18:12;;;;;;;10.45;3.83;;;21.30;44.10;;;;;;4992096;28;20097;-77
2023/05/13 04:20:38;;;;;;;7.65;3.83;;;21.30;44.20;;;;;;4975032;28;20034;-76
2023/05/13 04:23:04;;;;;;;10.23;4.00;;;21.30;44.40;;;;;;4974968;28;20034;-76
2023/05/13 04:25:30;;;;;;;6.47;3.53;;;21.30;44.50;;;;;;4992008;28;20026;-76
2023/05/13 04:27:56;;;;;;;5.78;3.75;;;21.30;44.50;;;;;;4992070;28;20022;-76
2023/05/13 04:30:33;;;;;;;6.47;3.50;;;21.30;44.60;;;;;;4975003;28;20474;-76
2023/05/13 04:32:59;;;;;;;7.30;3.67;;;21.30;44.70;;;;;;4974900;28;20369;-75
2023/05/13 04:35:25;;;;;;;5.35;3.40;;;21.30;44.80;;;;;;4959017;28;20030;-75
2023/05/13 04:37:56;;;;;;;6.03;3.25;;;21.30;44.90;;;;;;4974572;28;20546;-75
2023/05/13 04:40:22;;;;;;;8.50;3.78;;;21.30;44.90;;;;;;4974768;28;20504;-75
2023/05/13 04:42:53;;;;;;;8.60;3.92;;;21.30;45.00;;;;;;4974689;28;20039;-76
2023/05/13 04:45:22;;;;;;;7.47;3.58;;;21.30;45.10;;;;;;4974553;28;20034;-76
2023/05/13 04:47:48;;;;;;;8.15;4.15;;;21.30;45.10;;;;;;4990366;28;20068;-75
2023/05/13 04:50:15;;;;;;;8.52;3.88;;;21.30;45.10;;;;;;4974718;28;20523;-75
2023/05/13 04:52:41;;;;;;;7.43;3.25;;;21.40;45.30;;;;;;4958640;28;20077;-75
2023/05/13 04:55:08;;;;;;;8.48;4.15;;;21.40;45.30;;;;;;4974731;28;20038;-75
2023/05/13 04:57:35;;;;;;;6.70;3.95;;;21.40;45.30;;;;;;4991922;28;20057;-75
2023/05/13 05:00:02;;;;;;;7.60;3.40;;;21.40;45.40;;;;;;4974631;28;20035;-75
2023/05/13 05:02:31;;;;;;;8.55;3.95;;;21.40;45.40;;;;;;4974659;28;20033;-76
2023/05/13 05:04:57;;;;;;;6.18;3.58;;;21.40;45.40;;;;;;4974421;28;20404;-75
2023/05/13 05:07:23;;;;;;;6.82;3.50;;;21.40;45.50;;;;;;4991613;28;20045;-76
2023/05/13 05:09:50;;;;;;;7.45;3.90;;;21.40;45.60;;;;;;4974449;28;20034;-75
2023/05/13 05:12:17;;;;;;;6.05;3.47;;;21.50;45.70;;;;;;4974465;28;20445;-76
2023/05/13 05:14:43;;;;;;;4.80;3.20;;;21.50;45.70;;;;;;4974733;28;20499;-75
2023/05/13 05:17:09;;;;;;;5.45;3.80;;;21.40;45.70;;;;;;4974151;28;20026;-75
2023/05/13 05:19:35;;;;;;;6.25;3.58;;;21.50;45.80;;;;;;4958463;28;20041;-75
2023/05/13 05:22:01;;;;;;;6.03;3.65;;;21.50;46.00;;;;;;4974419;28;20041;-74
2023/05/13 05:24:28;;;;;;;5.68;3.53;;;21.40;45.90;;;;;;4974268;28;20065;-74
2023/05/13 05:26:54;;;;;;;6.40;3.35;;;21.50;46.00;;;;;;4973993;28;20473;-74
2023/05/13 05:29:20;;;;;;;7.07;3.55;;;21.50;46.10;;;;;;4974361;28;20236;-74
2023/05/13 05:31:46;;;;;;;7.20;3.13;;;21.50;46.10;;;;;;4958187;28;20122;-74
2023/05/13 05:34:12;;;;;;;7.55;3.65;;;21.50;46.10;;;;;;4974422;28;20034;-74
2023/05/13 05:36:38;;;;;;;6.75;3.60;;;21.50;46.20;;;;;;4974461;28;20037;-75
2023/05/13 05:39:05;;;;;;;6.30;3.30;;;21.50;46.30;;;;;;4961835;28;20100;-74
2023/05/13 05:41:32;;;;;;;5.65;3.50;;;21.50;46.30;;;;;;4978024;28;20023;-75
2023/05/13 05:43:58;;;;;;;7.40;3.72;;;21.50;46.30;;;;;;4977831;28;20045;-76
2023/05/13 05:46:24;;;;;;;7.43;4.05;;;21.50;46.40;;;;;;4977874;28;20037;-75
2023/05/13 05:48:51;;;;;;;9.55;4.10;;;21.50;46.50;;;;;;4977411;28;20035;-73
2023/05/13 05:51:16;;;;;;;5.57;3.45;;;21.60;46.50;;;;;;4977795;28;20103;-73
2023/05/13 05:53:43;;;;;;;7.47;3.92;;;21.50;46.60;;;;;;4977698;28;20027;-73
2023/05/13 05:56:11;;;;;;;6.28;3.83;;;21.60;46.70;;;;;;4977703;28;20038;-74
2023/05/13 05:58:37;;;;;;;5.32;3.30;;;21.50;46.80;;;;;;4977405;28;20400;-73
2023/05/13 06:01:03;;;;;;;7.30;3.45;;;21.60;46.80;;;;;;4995313;28;20026;-73
2023/05/13 06:03:29;;;;;;;5.55;3.22;;;21.60;46.80;;;;;;4977557;28;20041;-74
2023/05/13 06:05:54;;;;;;;7.38;3.70;;;21.60;46.70;;;;;;4994872;28;20037;-74
2023/05/13 06:08:21;;;;;;;5.47;3.45;;;21.60;47.00;;;;;;4976964;28;20133;-74
2023/05/13 06:10:47;;;;;;;5.97;3.28;;;21.60;47.20;;;;;;4977520;28;20062;-75
2023/05/13 06:13:13;;;;;;;5.22;3.65;;;21.60;47.10;;;;;;4977388;28;20097;-74
2023/05/13 06:15:39;;;;;;;8.40;3.80;;;21.60;47.00;;;;;;4977261;28;20137;-75
2023/05/13 06:18:05;;;;;;;6.15;3.60;;;21.60;47.20;;;;;;4977063;28;20026;-75
2023/05/13 06:20:33;;;;;;;8.13;3.88;;;21.60;47.50;;;;;;4977209;28;20101;-77
2023/05/13 06:22:59;;;;;;;13.35;3.47;;;21.60;47.80;;;;;;4960573;28;20568;-75
2023/05/13 06:25:25;;;;;;;8.07;3.60;;;21.70;47.90;;;;;;4975707;28;20026;-75
2023/05/13 06:27:50;;;;;;;6.00;3.00;;;21.70;48.00;;;;;;4959996;28;20117;-76
2023/05/13 06:30:27;;;;;;;6.27;3.57;;;21.70;48.00;;;;;;4994435;28;20081;-74
2023/05/13 06:32:54;;;;;;;6.45;3.58;;;21.70;48.00;;;;;;4977086;28;20041;-76
2023/05/13 06:35:20;;;;;;;6.00;3.35;;;21.70;48.70;;;;;;4976955;28;20038;-76
2023/05/13 06:37:46;;;;;;;8.40;3.58;;;21.70;48.10;;;;;;4973429;28;20029;-75
2023/05/13 06:40:11;;;;;;;9.23;3.72;;;21.70;48.30;;;;;;4974526;28;20034;-76
2023/05/13 06:42:40;;;;;;;7.07;3.92;;;21.70;48.40;;;;;;4974464;28;20456;-75
2023/05/13 06:45:13;;;;;;;5.07;3.20;;;21.70;48.50;;;;;;4959513;28;20026;-75
2023/05/13 06:47:41;;;;;;;7.05;3.70;;;21.70;48.60;;;;;;4957962;28;20362;-75
2023/05/13 06:50:10;;;;;;;5.97;3.55;;;21.70;48.70;;;;;;4991253;28;20092;-75
2023/05/13 06:52:35;;;;;;;8.40;3.17;;;21.70;48.60;;;;;;4957864;28;20042;-74
2023/05/13 06:55:01;;;;;;;6.47;3.75;;;21.70;48.70;;;;;;4974718;28;20026;-75
2023/05/13 06:57:30;;;;;;;6.75;3.53;;;21.70;48.70;;;;;;4991344;28;20045;-75
2023/05/13 06:59:56;;;;;;;5.93;3.38;;;21.80;48.80;;;;;;4991915;28;20117;-76
2023/05/13 07:02:22;;;;;;;7.20;3.50;;;21.70;48.70;;;;;;4994347;28;20117;-76
2023/05/13 07:04:48;;;;;;;8.13;3.67;;;21.70;48.80;;;;;;4991756;28;20033;-76
2023/05/13 07:07:13;;;;;;;6.85;3.45;;;21.80;48.90;;;;;;4973687;28;20094;-77
2023/05/13 07:09:39;;;;;;;6.45;3.60;;;21.80;48.90;;;;;;4991115;28;20022;-77
2023/05/13 07:12:05;;;;;;;4.50;3.30;;;21.80;48.90;;;;;;4991624;28;20033;-77
2023/05/13 07:14:31;;;;;;;6.13;3.53;;;21.80;48.90;;;;;;4974059;28;20508;-75
2023/05/13 07:16:57;;;;;;;4.75;3.20;;;21.80;49.00;;;;;;4973747;28;20027;-75
2023/05/13 07:19:23;;;;;;;5.78;3.42;;;21.80;49.00;;;;;;4974228;28;20443;-75
2023/05/13 07:21:49;;;;;;;9.40;3.90;;;21.80;49.10;;;;;;4987566;28;20038;-75
2023/05/13 07:24:14;;;;;;;8.38;3.50;;;21.80;49.10;;;;;;4991723;28;20031;-75
2023/05/13 07:26:40;;;;;;;5.93;3.25;;;21.80;49.10;;;;;;4991577;28;20054;-75
2023/05/13 07:29:06;;;;;;;6.75;3.67;;;21.80;49.20;;;;;;4991212;28;20493;-75
2023/05/13 07:31:33;;;;;;;7.45;3.58;;;21.80;49.20;;;;;;4991027;28;20027;-75
2023/05/13 07:33:59;;;;;;;6.03;3.63;;;21.80;49.20;;;;;;4992152;28;20046;-75
2023/05/13 07:36:25;;;;;;;6.80;3.63;;;21.80;49.20;;;;;;4991406;28;20575;-76
2023/05/13 07:38:50;;;;;;;5.10;3.28;;;21.90;49.20;;;;;;4973602;28;20062;-75
2023/05/13 07:41:16;;;;;;;5.50;3.33;;;21.80;49.30;;;;;;4991235;28;20037;-75
2023/05/13 07:43:42;;;;;;;8.35;3.53;;;21.80;49.20;;;;;;4991375;28;20022;-75
2023/05/13 07:46:08;;;;;;;5.30;3.50;;;21.80;49.20;;;;;;4991329;28;20085;-75
2023/05/13 07:48:36;;;;;;;10.30;3.40;;;21.90;49.30;;;;;;4991018;28;20480;-76
2023/05/13 07:51:02;;;;;;;5.82;3.38;;;21.80;49.20;;;;;;4991034;28;20117;-75
2023/05/13 07:53:27;;;;;;;6.70;3.47;;;21.80;49.30;;;;;;4990737;28;20539;-75
2023/05/13 07:55:53;;;;;;;7.22;3.30;;;21.80;49.30;;;;;;4991364;28;20034;-76
2023/05/13 07:58:19;;;;;;;6.57;3.38;;;21.90;49.40;;;;;;4990835;28;20096;-76
2023/05/13 08:00:45;;;;;;;7.22;3.30;;;21.90;49.30;;;;;;4973230;28;20030;-76
2023/05/13 08:03:11;;;;;;;5.53;3.15;;;21.90;49.40;;;;;;4990682;28;20027;-76
2023/05/13 08:05:37;;;;;;;6.82;3.42;;;21.90;49.40;;;;;;4973404;28;20559;-76
2023/05/13 08:08:03;;;;;;;5.75;3.38;;;22.00;49.40;;;;;;4990408;28;20026;-75
2023/05/13 08:10:29;;;;;;;6.90;3.50;;;21.90;49.40;;;;;;4990942;28;20087;-76
2023/05/13 08:12:56;;;;;;;5.05;3.10;;;21.90;49.40;;;;;;4990846;28;20400;-75
2023/05/13 08:15:26;;;;;;;5.78;3.25;;;21.90;49.40;;;;;;4973257;28;20031;-76
2023/05/13 08:17:52;;;;;;;5.13;3.10;;;21.90;49.40;;;;;;4990460;28;20038;-75
2023/05/13 08:20:19;;;;;;;9.18;3.58;;;21.90;49.40;;;;;;4990428;28;20038;-75
2023/05/13 08:22:47;;;;;;;6.53;3.40;;;21.90;49.50;;;;;;4957102;28;20038;-76
2023/05/13 08:25:14;;;;;;;5.90;3.40;;;21.90;49.60;;;;;;4990674;28;20026;-76
2023/05/13 08:27:40;;;;;;;5.80;3.13;;;22.00;49.60;;;;;;4990125;28;20038;-76
2023/05/13 08:30:06;;;;;;;5.35;3.28;;;21.90;49.60;;;;;;4990637;28;20035;-76
2023/05/13 08:32:32;;;;;;;5.60;3.15;;;21.90;49.60;;;;;;4973136;28;20468;-76
2023/05/13 08:35:00;;;;;;;5.32;3.22;;;22.00;49.70;;;;;;4972413;28;20057;-76
2023/05/13 08:37:26;;;;;;;6.32;3.38;;;22.00;49.70;;;;;;4972891;28;20125;-77
2023/05/13 08:39:52;;;;;;;5.75;3.15;;;22.00;49.70;;;;;;4973327;28;20034;-77
2023/05/13 08:42:20;;;;;;;7.63;3.35;;;22.00;49.80;;;;;;4990512;28;20097;-76
2023/05/13 08:44:50;;;;;;;6.43;3.20;;;22.00;49.80;;;;;;4973001;28;20046;-76
2023/05/13 08:47:41;;;;;;;4.95;3.22;;;21.90;49.70;;;;;;4973148;28;20030;-77
2023/05/13 08:50:07;;;;;;;8.43;3.30;;;22.00;49.90;;;;;;4990311;28;20030;-77
2023/05/13 08:52:33;;;;;;;4.80;2.95;;;22.00;49.80;;;;;;4990285;28;20102;-78
2023/05/13 08:55:00;;;;;;;5.80;3.10;;;22.00;49.80;;;;;;4973450;28;20129;-76
2023/05/13 08:57:26;;;;;;;10.45;3.30;;;22.00;50.40;;;;;;4956482;28;20047;-76
2023/05/13 08:59:52;;;;;;;6.57;3.42;;;22.00;49.80;;;;;;4990167;28;20030;-76
2023/05/13 09:02:18;;;;;;;7.25;3.33;;;22.00;49.90;;;;;;4973030;28;20528;-76
2023/05/13 09:04:47;;;;;;;7.43;3.38;;;22.00;49.80;;;;;;4972592;28;20473;-76
2023/05/13 09:07:13;;;;;;;5.50;3.17;;;22.00;49.90;;;;;;4972213;28;20097;-77
2023/05/13 09:09:39;;;;;;;9.98;3.30;;;22.00;49.90;;;;;;4957024;28;20281;-76
2023/05/13 09:12:06;;;;;;;7.97;3.20;;;22.00;50.00;;;;;;4957582;28;20117;-77
2023/05/13 09:14:33;;;;;;;5.40;3.22;;;22.00;50.00;;;;;;4976695;28;20041;-76
2023/05/13 09:17:00;;;;;;;7.40;3.30;;;22.00;50.00;;;;;;4993560;28;20036;-77
2023/05/13 09:19:28;;;;;;;8.27;3.45;;;22.00;50.00;;;;;;4993872;28;20034;-77
2023/05/13 09:21:55;;;;;;;6.15;3.00;;;22.00;50.00;;;;;;4992864;28;20053;-77
2023/05/13 09:24:21;;;;;;;7.05;3.35;;;22.00;50.00;;;;;;4994017;28;20038;-77
2023/05/13 09:26:49;;;;;;;4.80;3.22;;;22.00;50.10;;;;;;4975704;28;20034;-77
2023/05/13 09:29:28;;;;;;;5.03;3.30;;;22.00;50.10;;;;;;4976020;28;20117;-77
2023/05/13 09:32:05;;;;;;;5.55;3.20;;;22.00;50.00;;;;;;4976398;28;20030;-77
2023/05/13 09:34:33;;;;;;;5.57;3.05;;;22.00;50.10;;;;;;4989618;28;20038;-76
2023/05/13 09:37:00;;;;;;;7.82;3.00;;;22.00;50.10;;;;;;4975988;28;20309;-76
2023/05/13 09:39:26;;;;;;;5.93;3.15;;;22.00;50.10;;;;;;4975914;28;20026;-76
2023/05/13 09:41:53;;;;;;;4.68;3.13;;;22.00;50.20;;;;;;4976187;28;20600;-76
2023/05/13 09:44:20;;;;;;;7.15;3.13;;;22.00;50.50;;;;;;4976213;28;20058;-75
2023/05/13 09:46:46;;;;;;;6.32;3.00;;;22.00;50.10;;;;;;4976197;28;20038;-76
2023/05/13 09:49:14;;;;;;;7.45;3.20;;;22.00;50.10;;;;;;4992977;28;20029;-76
2023/05/13 09:51:42;;;;;;;5.05;3.03;;;22.00;50.10;;;;;;4993464;28;20061;-76
2023/05/13 09:54:08;;;;;;;5.72;3.08;;;22.00;50.10;;;;;;4993308;28;20034;-76
2023/05/13 09:56:35;;;;;;;5.35;3.05;;;22.00;50.10;;;;;;4975824;28;20027;-76
2023/05/13 09:59:02;;;;;;;5.22;3.00;;;22.00;50.00;;;;;;4992850;28;20567;-76
2023/05/13 10:01:28;;;;;;;6.60;3.28;;;22.00;50.10;;;;;;4989436;28;20049;-76
2023/05/13 10:03:55;;;;;;;6.20;3.03;;;22.00;50.10;;;;;;4975879;28;20041;-76
2023/05/13 10:06:29;;;;;;;6.18;3.30;;;22.00;50.00;;;;;;4993257;28;20052;-76
2023/05/13 10:08:57;;;;;;;6.13;2.53;;;22.00;50.00;;;;;;4959008;28;20612;-76
2023/05/13 10:11:23;;;;;;;6.65;3.05;;;22.00;50.00;;;;;;4993279;28;20029;-75
2023/05/13 10:13:54;;;;;;;5.90;3.40;;;22.00;50.00;;;;;;4993179;28;20030;-76
2023/05/13 10:16:22;;;;;;;5.07;3.20;;;22.00;50.00;;;;;;4992901;28;20105;-76
2023/05/13 10:18:49;;;;;;;6.25;3.47;;;22.00;50.00;;;;;;4959208;28;20109;-76
2023/05/13 10:21:15;;;;;;;5.50;3.10;;;22.00;50.10;;;;;;4992935;28;20065;-75
2023/05/13 10:23:41;;;;;;;5.57;3.45;;;22.00;50.00;;;;;;4992587;28;20031;-76
2023/05/13 10:26:07;;;;;;;6.55;3.20;;;22.00;50.10;;;;;;4992680;28;20445;-75
2023/05/13 10:28:33;;;;;;;6.60;3.00;;;22.00;50.10;;;;;;4992536;28;20019;-75
2023/05/13 10:30:59;;;;;;;6.03;3.20;;;22.00;50.10;;;;;;4975346;28;20094;-75
2023/05/13 10:33:26;;;;;;;5.65;3.08;;;22.00;50.10;;;;;;4992635;28;20026;-75
2023/05/13 10:36:24;;;;;;;6.55;2.75;;;22.00;50.10;;;;;;4992564;28;20377;-75
2023/05/13 10:39:09;;;;;;;9.77;3.17;;;22.00;50.10;;;;;;4991997;28;20077;-76
2023/05/13 10:42:17;;;;;;;7.53;3.10;;;22.00;50.10;;;;;;4975186;28;20030;-76
2023/05/13 10:44:46;;;;;;;5.88;3.03;;;22.00;50.10;;;;;;4975815;28;20034;-77
2023/05/13 10:47:12;;;;;;;5.18;3.10;;;22.00;50.20;;;;;;4992072;28;20034;-77
2023/05/13 10:49:50;;;;;;;8.35;3.30;;;22.00;50.20;;;;;;4992505;28;20027;-77
2023/05/13 10:52:16;;;;;;;5.60;3.22;;;22.00;50.20;;;;;;4975201;28;20042;-77
2023/05/13 10:54:42;;;;;;;5.20;2.90;;;22.00;50.20;;;;;;4992209;28;20030;-77
2023/05/13 10:57:09;;;;;;;5.50;2.97;;;22.00;50.30;;;;;;4974576;28;20054;-77
2023/05/13 10:59:36;;;;;;;4.45;2.83;;;22.00;50.30;;;;;;4991959;28;20084;-77
2023/05/13 11:02:23;;;;;;;7.13;3.45;;;22.00;50.30;;;;;;4974631;28;20041;-77
2023/05/13 11:04:59;;;;;;;4.05;3.17;;;22.00;50.30;;;;;;4991561;28;20038;-76
2023/05/13 11:07:28;;;;;;;3.83;2.70;;;22.00;50.40;;;;;;4991757;28;20042;-77
2023/05/13 11:09:53;;;;;;;4.22;2.95;;;22.00;50.50;;;;;;4958463;28;20092;-76
2023/05/13 11:12:19;;;;;;;6.60;2.90;;;22.00;50.50;;;;;;4974570;28;20420;-76
2023/05/13 11:14:46;;;;;;;5.57;2.80;;;22.00;50.60;;;;;;4992324;28;20027;-75
2023/05/13 11:17:11;;;;;;;4.30;2.92;;;22.00;50.60;;;;;;4991871;28;20030;-75
2023/05/13 11:19:45;;;;;;;5.35;2.75;;;22.00;50.60;;;;;;4974574;28;20168;-75
2023/05/13 11:22:14;;;;;;;4.07;2.60;;;22.00;50.60;;;;;;4991848;28;20027;-76
2023/05/13 11:24:40;;;;;;;4.60;2.92;;;22.00;50.60;;;;;;4991592;28;20042;-76
2023/05/13 11:27:16;;;;;;;4.43;2.75;;;22.00;50.70;;;;;;4990415;28;20392;-77
2023/05/13 11:29:56;;;;;;;4.43;2.80;;;22.00;50.70;;;;;;4988185;28;20104;-76
2023/05/13 11:32:50;;;;;;;5.18;3.22;;;22.00;50.70;;;;;;4991707;28;20062;-77
2023/05/13 11:35:23;;;;;;;6.38;3.00;;;22.00;50.70;;;;;;4990527;28;20031;-76
2023/05/13 11:37:49;;;;;;;4.45;2.85;;;22.00;50.80;;;;;;4973933;28;20030;-77
2023/05/13 11:40:32;;;;;;;5.00;2.60;;;22.00;50.70;;;;;;4991481;28;20062;-76
2023/05/13 11:42:59;;;;;;;5.00;2.70;;;22.00;50.70;;;;;;4987993;28;20484;-76
2023/05/13 11:45:26;;;;;;;3.90;2.58;;;22.00;50.70;;;;;;4974151;28;20124;-76
2023/05/13 11:47:53;;;;;;;4.43;2.80;;;22.00;50.80;;;;;;4989601;28;20102;-76
2023/05/13 11:50:20;;;;;;;4.78;2.72;;;22.00;50.80;;;;;;4973558;28;20455;-77
2023/05/13 11:52:55;;;;;;;4.35;2.75;;;22.00;50.80;;;;;;4991321;28;20027;-77
2023/05/13 11:55:27;;;;;;;7.82;3.10;;;22.00;50.80;;;;;;4973658;28;20091;-77
2023/05/13 11:57:53;;;;;;;4.18;2.67;;;22.00;50.80;;;;;;4986844;28;20038;-77
2023/05/13 12:00:27;;;;;;;4.80;2.53;;;22.00;50.90;;;;;;4990106;28;20053;-76
2023/05/13 12:02:53;;;;;;;5.47;2.53;;;22.00;50.90;;;;;;4974109;28;20069;-76
2023/05/13 12:05:19;;;;;;;4.32;2.65;;;22.00;50.90;;;;;;4990471;28;20380;-76
2023/05/13 12:07:45;;;;;;;5.45;2.75;;;22.00;51.00;;;;;;4990519;28;20033;-76
2023/05/13 12:10:11;;;;;;;4.68;2.75;;;22.00;51.00;;;;;;4990936;28;20492;-76
2023/05/13 12:12:38;;;;;;;3.95;2.53;;;22.00;51.00;;;;;;4941787;28;20034;-75
2023/05/13 12:15:10;;;;;;;4.53;2.90;;;22.00;51.00;;;;;;4990502;28;20026;-75
2023/05/13 12:17:36;;;;;;;5.28;3.03;;;22.00;51.00;;;;;;4987143;28;20026;-75
2023/05/13 12:20:12;;;;;;;3.45;2.55;;;22.00;51.00;;;;;;4990797;28;20026;-75
2023/05/13 12:22:44;;;;;;;4.95;2.85;;;22.00;51.10;;;;;;4990407;28;20097;-75
2023/05/13 12:25:38;;;;;;;3.92;2.60;;;22.00;51.10;;;;;;4990714;28;20046;-75
2023/05/13 12:28:19;;;;;;;3.65;2.45;;;22.00;51.10;;;;;;4973071;28;20496;-75
2023/05/13 12:30:57;;;;;;;7.03;2.50;;;22.00;51.20;;;;;;4990605;28;20362;-75
2023/05/13 12:33:26;;;;;;;5.05;3.10;;;22.00;51.20;;;;;;4989536;28;20026;-74
2023/05/13 12:36:26;;;;;;;4.67;2.77;;;22.00;51.20;;;;;;4990440;28;20026;-74
2023/05/13 12:39:22;;;;;;;6.10;2.80;;;22.00;51.20;;;;;;4990029;28;20273;-75
2023/05/13 12:41:52;;;;;;;5.40;2.63;;;22.00;51.20;;;;;;4982484;28;20042;-76
2023/05/13 12:44:18;;;;;;;4.40;2.83;;;22.00;51.20;;;;;;4990487;28;20037;-76
2023/05/13 12:46:52;;;;;;;7.05;2.63;;;22.00;51.20;;;;;;4989902;28;20400;-76
2023/05/13 12:49:18;;;;;;;4.82;2.63;;;22.00;51.20;;;;;;4985857;28;20030;-74
2023/05/13 12:51:44;;;;;;;4.53;2.63;;;22.00;51.20;;;;;;4973363;28;20049;-75